Time;durP1;ratioP1;P1;durP2;ratioP2;P2;SDS_P1;SDS_P2;PMS_P1;PMS_P2;Temp;Humidity;BMP_temperature;BMP_pressure;BME280_temperature;BME280_humidity;BME280_pressure;Samples;Min_cycle;Max_cycle;Signal;HPM_P1;HPM_P2
2021/03/12 00:02:35;;;;;;;41.72;20.50;;;;;;;-2.52;100.00;95120.63;10377122;28;20054;-90
2021/03/12 00:07:36;;;;;;;40.40;23.30;;;;;;;-2.45;100.00;95139.97;10372702;28;20030;-91
2021/03/12 00:12:38;;;;;;;40.92;21.55;;;;;;;-2.61;100.00;95133.03;10375107;28;20283;-91
2021/03/12 00:17:39;;;;;;;47.25;23.10;;;;;;;-2.58;100.00;95128.25;10373378;28;20034;-90
2021/03/12 00:22:40;;;;;;;37.75;21.38;;;;;;;-2.52;100.00;95133.78;10372930;28;20033;-90
2021/03/12 00:27:41;;;;;;;36.47;20.48;;;;;;;-2.54;100.00;95128.72;10356092;28;20452;-90
2021/03/12 00:32:42;;;;;;;41.33;21.60;;;;;;;-2.67;100.00;95125.88;10338006;28;20029;-87
2021/03/12 00:37:42;;;;;;;48.28;27.60;;;;;;;-2.85;100.00;95105.19;10372282;28;20037;-91
2021/03/12 00:42:43;;;;;;;54.15;27.55;;;;;;;-2.83;100.00;95109.28;10372257;28;20029;-88
2021/03/12 00:47:45;;;;;;;56.08;26.10;;;;;;;-2.85;100.00;95099.94;10367649;28;20447;-88
2021/03/12 00:52:45;;;;;;;57.50;24.35;;;;;;;-2.99;100.00;95083.94;10375485;28;20025;-94
2021/03/12 00:57:46;;;;;;;53.05;24.40;;;;;;;-3.00;100.00;95074.44;10376514;28;20555;-94
2021/03/12 01:02:46;;;;;;;48.03;24.23;;;;;;;-2.97;100.00;95076.72;10377498;28;20054;-92
2021/03/12 01:07:47;;;;;;;48.53;25.43;;;;;;;-3.06;100.00;95083.03;10374782;28;20124;-93
2021/03/12 01:12:47;;;;;;;50.60;27.35;;;;;;;-3.00;100.00;95063.94;10370912;28;20276;-87
2021/03/12 01:17:48;;;;;;;55.45;27.00;;;;;;;-2.86;100.00;95053.59;10365084;28;20059;-91
2021/03/12 01:22:49;;;;;;;50.45;26.83;;;;;;;-2.95;100.00;95055.50;10369067;28;20033;-91
2021/03/12 01:27:50;;;;;;;48.78;27.30;;;;;;;-2.94;100.00;95054.50;10375431;28;20041;-93
2021/03/12 01:32:51;;;;;;;63.95;32.58;;;;;;;-2.96;100.00;95044.16;10372457;28;20022;-87
2021/03/12 01:38:01;;;;;;;72.65;37.63;;;;;;;-3.07;100.00;95055.09;10371275;28;20109;-87
2021/03/12 01:43:02;;;;;;;72.35;36.53;;;;;;;-2.94;100.00;95052.69;10369437;28;20037;-87
2021/03/12 01:48:06;;;;;;;62.80;33.22;;;;;;;-2.76;100.00;95036.53;10371941;28;20022;-94
2021/03/12 01:53:11;;;;;;;71.05;36.38;;;;;;;-2.63;100.00;95051.66;10371169;28;20072;-88
2021/03/12 01:58:24;;;;;;;69.40;37.50;;;;;;;-2.56;100.00;95061.47;10369773;28;20030;-87
2021/03/12 02:03:30;;;;;;;85.68;43.92;;;;;;;-2.46;100.00;95068.06;10344486;28;20039;-88
2021/03/12 02:08:30;;;;;;;92.97;43.58;;;;;;;-2.47;100.00;95070.88;10337624;28;20121;-87
2021/03/12 02:13:38;;;;;;;88.03;44.17;;;;;;;-2.48;100.00;95043.75;10341765;28;20042;-87
2021/03/12 02:19:07;;;;;;;99.90;47.70;;;;;;;-2.50;100.00;95022.06;10329455;28;20112;-87
2021/03/12 02:24:24;;;;;;;85.90;44.67;;;;;;;-2.46;100.00;95007.53;10329059;28;20033;-86
2021/03/12 02:29:25;;;;;;;88.28;43.05;;;;;;;-2.55;100.00;95013.09;10329223;28;20144;-88
2021/03/12 02:34:30;;;;;;;101.40;44.92;;;;;;;-2.75;100.00;95011.88;10341818;28;20021;-95
2021/03/12 02:39:34;;;;;;;97.65;49.50;;;;;;;-2.72;100.00;94994.06;10364020;28;20028;-94
2021/03/12 02:50:32;;;;;;;77.13;34.92;;;;;;;-2.60;100.00;94990.78;10381029;28;20038;-94
2021/03/12 02:55:35;;;;;;;70.32;33.55;;;;;;;-2.59;100.00;94976.63;10370745;28;20018;-94
2021/03/12 03:00:36;;;;;;;60.72;32.83;;;;;;;-2.70;100.00;94987.63;10343387;28;20060;-94
2021/03/12 03:05:38;;;;;;;66.72;31.48;;;;;;;-2.67;100.00;95000.41;10346590;28;20057;-87
2021/03/12 03:10:39;;;;;;;64.32;33.30;;;;;;;-2.62;100.00;94990.16;10332251;28;20022;-88
2021/03/12 03:15:42;;;;;;;63.60;34.17;;;;;;;-2.48;100.00;94990.31;10334430;28;20073;-87
2021/03/12 03:20:43;;;;;;;65.80;32.63;;;;;;;-2.41;100.00;94964.88;10334906;28;20473;-86
2021/03/12 03:25:43;;;;;;;47.17;25.17;;;;;;;-2.42;100.00;94956.16;10333952;28;20035;-86
2021/03/12 03:30:48;;;;;;;32.23;17.47;;;;;;;-2.36;100.00;94956.41;10335381;28;20405;-87
2021/03/12 03:35:48;;;;;;;25.70;14.25;;;;;;;-2.30;100.00;94950.41;10334064;28;20014;-90
2021/03/12 03:40:49;;;;;;;22.93;10.77;;;;;;;-2.51;100.00;94951.19;10333687;28;20023;-91
2021/03/12 03:45:51;;;;;;;21.95;12.20;;;;;;;-2.65;100.00;94961.59;10335087;28;21123;-87
2021/03/12 03:50:52;;;;;;;23.38;14.00;;;;;;;-2.62;100.00;94968.31;10335101;28;20022;-90
2021/03/12 03:55:53;;;;;;;19.02;12.88;;;;;;;-2.59;100.00;94962.66;10335258;28;20045;-89
2021/03/12 04:00:54;;;;;;;26.40;14.23;;;;;;;-2.55;100.00;94950.78;10333478;28;20057;-87
2021/03/12 04:05:57;;;;;;;22.85;12.40;;;;;;;-2.65;100.00;94947.59;10332831;28;20416;-87
2021/03/12 04:10:58;;;;;;;22.73;13.43;;;;;;;-2.48;100.00;94953.47;10334234;28;20022;-93
2021/03/12 04:16:18;;;;;;;24.88;13.45;;;;;;;-2.36;100.00;94941.44;10342006;28;20041;-93
2021/03/12 04:21:19;;;;;;;22.90;11.93;;;;;;;-2.30;100.00;94948.59;10334279;28;20026;-92
2021/03/12 04:26:19;;;;;;;23.40;14.68;;;;;;;-2.25;100.00;94958.56;10334939;28;20405;-94
2021/03/12 04:31:21;;;;;;;31.65;13.57;;;;;;;-2.23;100.00;94948.66;10334654;28;20018;-93
2021/03/12 04:36:22;;;;;;;28.30;15.20;;;;;;;-2.25;100.00;94934.84;10332715;28;20022;-90
2021/03/12 04:41:22;;;;;;;27.67;16.88;;;;;;;-2.21;100.00;94938.75;10330591;28;20401;-88
2021/03/12 04:46:22;;;;;;;35.58;18.90;;;;;;;-2.19;100.00;94936.75;10328416;28;20081;-89
2021/03/12 04:51:23;;;;;;;36.58;19.48;;;;;;;-2.09;100.00;94953.03;10332019;28;20066;-91
2021/03/12 04:56:23;;;;;;;36.35;17.65;;;;;;;-1.99;100.00;94958.00;10331120;28;20029;-90
2021/03/12 05:01:24;;;;;;;34.42;19.73;;;;;;;-2.02;100.00;94944.38;10331072;28;20088;-87
2021/03/12 05:06:26;;;;;;;35.00;18.77;;;;;;;-1.89;100.00;94947.13;10330595;28;20475;-88
2021/03/12 05:11:26;;;;;;;42.25;20.30;;;;;;;-1.89;100.00;94945.28;10341738;28;20021;-88
2021/03/12 05:16:26;;;;;;;50.95;26.65;;;;;;;-2.02;100.00;94916.25;10371392;28;20109;-88
2021/03/12 05:21:27;;;;;;;59.70;30.45;;;;;;;-1.78;100.00;94911.56;10338974;28;20014;-91
2021/03/12 05:26:28;;;;;;;49.50;26.88;;;;;;;-1.75;100.00;94946.22;10354468;28;20481;-90
2021/03/12 05:31:30;;;;;;;61.67;29.10;;;;;;;-1.78;100.00;94961.59;10344865;28;20022;-85
2021/03/12 05:36:31;;;;;;;60.67;30.25;;;;;;;-1.76;100.00;94968.31;10348206;28;20775;-90
2021/03/12 05:41:32;;;;;;;59.35;30.30;;;;;;;-2.03;100.00;94977.81;10372798;28;20099;-86
2021/03/12 05:46:36;;;;;;;60.25;30.65;;;;;;;-2.11;100.00;94991.94;10370494;28;20033;-85
2021/03/12 05:51:36;;;;;;;64.47;33.42;;;;;;;-2.10;100.00;94966.41;10369273;28;20053;-89
2021/03/12 05:56:38;;;;;;;61.10;29.33;;;;;;;-1.84;100.00;94976.38;10370488;28;20112;-86
2021/03/12 06:01:38;;;;;;;60.85;30.70;;;;;;;-1.76;100.00;94981.50;10368713;28;20050;-86
2021/03/12 06:06:39;;;;;;;63.33;37.93;;;;;;;-1.98;100.00;94983.31;10372764;28;20034;-90
2021/03/12 06:11:39;;;;;;;67.78;33.55;;;;;;;-1.85;100.00;94987.09;10376505;28;20093;-90
2021/03/12 06:16:48;;;;;;;71.50;35.95;;;;;;;-1.91;100.00;95015.00;10347468;28;20477;-90
2021/03/12 06:21:49;;;;;;;67.10;32.03;;;;;;;-1.06;100.00;95015.84;10338605;28;20030;-89
2021/03/12 06:26:49;;;;;;;64.95;31.27;;;;;;;-0.34;100.00;95010.31;10369813;28;20026;-90
2021/03/12 06:31:51;;;;;;;69.60;33.58;;;;;;;-0.45;100.00;95000.31;10374770;28;20659;-88
2021/03/12 06:36:52;;;;;;;68.65;34.80;;;;;;;-0.32;100.00;95013.56;10380794;28;20068;-94
2021/03/12 06:41:52;;;;;;;83.15;39.78;;;;;;;-0.26;100.00;95018.06;10382732;28;20101;-91
2021/03/12 06:46:53;;;;;;;76.63;36.60;;;;;;;0.59;100.00;95037.94;10375254;28;20034;-79
2021/03/12 06:51:54;;;;;;;66.45;34.08;;;;;;;1.00;100.00;95060.69;10339416;28;20416;-79
2021/03/12 06:56:55;;;;;;;62.10;32.17;;;;;;;1.24;100.00;95066.38;10330031;28;20046;-75
2021/03/12 07:02:02;;;;;;;67.25;32.90;;;;;;;1.11;100.00;95067.22;10363985;28;20099;-76
2021/03/12 07:07:02;;;;;;;69.95;37.42;;;;;;;0.65;100.00;95090.00;10368639;28;20034;-75
2021/03/12 07:12:05;;;;;;;76.00;35.33;;;;;;;-0.05;100.00;95082.34;10358522;28;20026;-75
2021/03/12 07:17:05;;;;;;;74.70;37.60;;;;;;;0.29;100.00;95101.75;10356752;28;20273;-75
2021/03/12 07:22:06;;;;;;;80.80;41.08;;;;;;;0.63;100.00;95097.34;10347169;28;20064;-75
2021/03/12 07:27:08;;;;;;;87.78;43.35;;;;;;;1.20;100.00;95081.88;10344037;28;20030;-75
2021/03/12 07:32:10;;;;;;;91.07;45.72;;;;;;;1.47;100.00;95087.09;10369435;28;20026;-76
2021/03/12 07:37:11;;;;;;;90.55;41.20;;;;;;;2.30;100.00;95081.09;10365980;28;20108;-74
2021/03/12 07:42:16;;;;;;;92.00;44.15;;;;;;;2.88;100.00;95071.31;10367520;28;20101;-74
2021/03/12 07:47:19;;;;;;;89.03;41.65;;;;;;;2.62;100.00;95074.97;10366525;28;20112;-73
2021/03/12 07:52:47;;;;;;;84.28;39.28;;;;;;;2.93;100.00;95062.69;10338320;28;20489;-74
2021/03/12 07:57:47;;;;;;;73.00;34.37;;;;;;;3.53;100.00;95062.13;10395763;28;20041;-74
2021/03/12 08:02:54;;;;;;;69.87;36.27;;;;;;;3.87;100.00;95042.13;10408103;28;20874;-75
2021/03/12 08:07:54;;;;;;;75.25;34.80;;;;;;;4.97;93.60;95026.81;10388593;28;20080;-77
2021/03/12 08:12:55;;;;;;;63.50;33.42;;;;;;;5.23;85.07;95007.94;10359186;28;20033;-77
2021/03/12 08:17:55;;;;;;;65.15;30.38;;;;;;;7.25;77.91;94990.03;10367479;28;20033;-77
2021/03/12 08:22:57;;;;;;;53.22;26.60;;;;;;;7.80;63.93;95011.59;10365908;28;20029;-77
2021/03/12 08:28:01;;;;;;;49.30;26.48;;;;;;;8.02;61.02;95023.13;10372253;28;20117;-77
2021/03/12 08:33:21;;;;;;;62.97;25.38;;;;;;;8.87;55.71;95028.06;10365597;28;20022;-77
2021/03/12 08:38:27;;;;;;;60.30;23.95;;;;;;;9.05;54.81;95040.25;10364475;28;20030;-79
2021/03/12 08:43:30;;;;;;;55.70;22.42;;;;;;;8.46;58.65;95041.03;10364635;28;20029;-78
2021/03/12 08:48:33;;;;;;;51.30;28.23;;;;;;;8.19;65.47;95033.75;10346104;28;20038;-76
2021/03/12 08:53:45;;;;;;;59.63;26.33;;;;;;;8.12;67.52;95037.69;10524312;28;20372;-75
2021/03/12 08:58:45;;;;;;;53.25;27.65;;;;;;;7.61;66.98;95043.19;10536816;28;20161;-76
2021/03/12 09:03:54;;;;;;;51.47;26.23;;;;;;;6.92;76.07;95030.94;10522422;28;20396;-75
2021/03/12 09:08:55;;;;;;;55.50;29.30;;;;;;;6.23;82.74;95040.69;10521451;28;20289;-77
2021/03/12 09:13:58;;;;;;;52.53;28.90;;;;;;;6.38;86.07;95031.34;10521656;28;20028;-72
2021/03/12 09:18:58;;;;;;;56.45;27.30;;;;;;;6.76;74.23;95035.22;10506687;28;20031;-74
2021/03/12 09:24:02;;;;;;;58.05;26.52;;;;;;;6.99;69.41;95020.91;10521741;28;20028;-75
2021/03/12 09:29:07;;;;;;;48.80;27.23;;;;;;;6.73;65.82;95022.38;10511523;28;20029;-72
2021/03/12 09:34:10;;;;;;;64.68;29.08;;;;;;;6.51;77.34;95015.03;10503853;28;20089;-74
2021/03/12 09:39:23;;;;;;;62.80;29.10;;;;;;;7.95;76.97;95006.44;10535034;28;20028;-74
2021/03/12 09:44:25;;;;;;;57.30;26.60;;;;;;;8.72;65.13;94991.19;10519110;28;20036;-75
2021/03/12 09:49:30;;;;;;;63.88;28.33;;;;;;;9.61;58.80;94995.28;10520291;28;20075;-74
2021/03/12 09:54:31;;;;;;;58.08;27.77;;;;;;;9.14;56.54;94988.81;10519563;28;20048;-74
2021/03/12 09:59:36;;;;;;;46.97;27.23;;;;;;;10.42;52.75;94970.66;10519292;28;20012;-75
2021/03/12 10:04:42;;;;;;;48.95;24.50;;;;;;;11.97;47.72;94978.56;10494151;28;20638;-74
2021/03/12 10:09:47;;;;;;;47.08;24.85;;;;;;;12.97;47.66;94981.22;10478051;28;20060;-73
2021/03/12 10:15:14;;;;;;;46.67;23.58;;;;;;;12.50;45.64;94967.22;10450156;28;20107;-79
2021/03/12 10:20:27;;;;;;;44.50;22.52;;;;;;;13.60;43.89;94955.28;10449971;28;20037;-77
2021/03/12 10:25:33;;;;;;;41.33;22.08;;;;;;;15.37;38.65;94945.25;10450447;28;20032;-78
2021/03/12 10:30:40;;;;;;;37.42;20.92;;;;;;;15.54;37.62;94939.25;10448556;28;20028;-77
2021/03/12 10:35:40;;;;;;;51.80;22.52;;;;;;;16.48;36.47;94922.72;10448577;28;20384;-79
2021/03/12 10:40:43;;;;;;;40.33;20.27;;;;;;;17.90;34.21;94937.69;10478649;28;20025;-80
2021/03/12 10:45:50;;;;;;;35.20;19.85;;;;;;;17.87;34.85;94936.38;10493492;28;20101;-77
2021/03/12 10:50:53;;;;;;;40.50;19.80;;;;;;;18.10;32.57;94928.19;10489668;28;20056;-79
2021/03/12 10:56:01;;;;;;;36.30;21.08;;;;;;;16.62;34.71;94938.97;10462304;28;20029;-79
2021/03/12 11:01:24;;;;;;;34.67;19.27;;;;;;;17.92;33.77;94921.91;10460340;28;20044;-80
2021/03/12 11:06:30;;;;;;;38.03;19.65;;;;;;;16.38;35.50;94902.06;10464092;28;20035;-79
2021/03/12 11:11:30;;;;;;;37.80;19.70;;;;;;;16.93;35.44;94887.50;10454435;28;20089;-81
2021/03/12 11:16:31;;;;;;;40.63;20.97;;;;;;;17.54;33.86;94882.41;10485029;28;20086;-79
2021/03/12 11:21:31;;;;;;;38.63;18.30;;;;;;;17.05;34.68;94892.38;10486621;28;20127;-81
2021/03/12 11:26:32;;;;;;;43.33;21.30;;;;;;;14.03;39.10;94887.78;10485489;28;20055;-80
2021/03/12 11:31:32;;;;;;;39.15;20.75;;;;;;;12.74;41.11;94899.13;10490495;28;20024;-86
2021/03/12 11:36:32;;;;;;;43.07;22.80;;;;;;;11.71;44.48;94889.00;10485309;28;20097;-75
2021/03/12 11:41:34;;;;;;;51.00;23.00;;;;;;;10.18;47.42;94888.91;10484052;28;20292;-75
2021/03/12 11:46:34;;;;;;;42.95;24.17;;;;;;;9.64;50.39;94896.31;10484723;28;20361;-75
2021/03/12 11:51:36;;;;;;;42.35;22.42;;;;;;;10.08;52.46;94887.81;10484558;28;20080;-75
2021/03/12 11:56:37;;;;;;;45.92;23.95;;;;;;;9.77;51.69;94878.88;10482440;28;20024;-75
2021/03/12 12:01:37;;;;;;;47.83;23.33;;;;;;;10.18;50.51;94865.53;10483572;28;20024;-73
2021/03/12 12:06:38;;;;;;;37.08;20.13;;;;;;;10.11;50.22;94853.44;10468571;28;20415;-73
2021/03/12 12:11:38;;;;;;;45.92;22.85;;;;;;;10.04;52.08;94851.81;10480698;28;20824;-73
2021/03/12 12:16:39;;;;;;;43.77;23.43;;;;;;;9.91;51.42;94836.25;10484268;28;20099;-74
2021/03/12 12:21:39;;;;;;;49.17;23.53;;;;;;;10.16;52.60;94827.41;10477100;28;20127;-72
2021/03/12 12:26:40;;;;;;;38.88;21.50;;;;;;;10.01;53.15;94822.03;10444904;28;20040;-73
2021/03/12 12:31:40;;;;;;;44.33;22.88;;;;;;;9.84;52.42;94828.44;10455804;28;20029;-74
2021/03/12 12:36:41;;;;;;;40.90;21.02;;;;;;;9.48;53.54;94814.13;10486406;28;20028;-78
2021/03/12 12:41:42;;;;;;;55.97;24.63;;;;;;;8.95;60.79;94814.19;10486560;28;20036;-77
2021/03/12 12:46:43;;;;;;;47.30;22.83;;;;;;;8.76;59.96;94805.78;10462216;28;20044;-74
2021/03/12 12:51:44;;;;;;;45.28;22.85;;;;;;;8.65;62.70;94815.63;10444212;28;20396;-74
2021/03/12 12:56:45;;;;;;;44.03;23.35;;;;;;;8.66;60.84;94790.47;10443574;28;20036;-75
2021/03/12 13:01:45;;;;;;;39.50;22.57;;;;;;;9.14;60.22;94793.09;10447892;28;20027;-78
2021/03/12 13:06:46;;;;;;;49.37;24.00;;;;;;;9.72;57.66;94787.63;10485277;28;20757;-75
2021/03/12 13:11:46;;;;;;;50.65;24.15;;;;;;;9.61;57.50;94780.63;10485443;28;20033;-75
2021/03/12 13:16:46;;;;;;;56.73;25.67;;;;;;;9.80;55.73;94786.31;10484560;28;20035;-73
2021/03/12 13:21:47;;;;;;;49.87;24.70;;;;;;;9.53;55.82;94776.56;10485762;28;20064;-74
2021/03/12 13:26:48;;;;;;;52.67;25.77;;;;;;;9.47;61.59;94781.13;10484698;28;20036;-74
2021/03/12 13:31:48;;;;;;;52.23;24.87;;;;;;;9.38;59.42;94788.09;10476625;28;20498;-75
2021/03/12 13:36:49;;;;;;;61.17;26.73;;;;;;;9.45;59.23;94769.88;10486832;28;20285;-75
2021/03/12 13:41:50;;;;;;;51.73;27.27;;;;;;;9.46;57.79;94770.66;10492832;28;20335;-75
2021/03/12 13:46:50;;;;;;;49.13;25.33;;;;;;;9.44;59.03;94773.63;10482554;28;20279;-75
2021/03/12 13:51:51;;;;;;;55.45;28.02;;;;;;;9.45;62.51;94772.56;10491779;28;20534;-74
2021/03/12 13:56:51;;;;;;;57.13;25.37;;;;;;;9.54;59.00;94754.88;10492132;28;20032;-73
2021/03/12 14:01:52;;;;;;;69.10;24.73;;;;;;;9.50;59.73;94758.34;10491796;28;20267;-73
2021/03/12 14:06:53;;;;;;;55.50;28.00;;;;;;;9.10;60.24;94757.16;10490699;28;20286;-74
2021/03/12 14:11:54;;;;;;;56.65;28.83;;;;;;;8.92;63.21;94755.72;10491486;28;20032;-74
2021/03/12 14:16:54;;;;;;;58.70;29.73;;;;;;;8.61;65.62;94753.75;10490947;28;20032;-74
2021/03/12 14:21:54;;;;;;;56.80;27.60;;;;;;;8.57;67.31;94749.16;10475223;28;20272;-72
2021/03/12 14:26:55;;;;;;;58.27;27.30;;;;;;;8.61;71.35;94744.88;10456166;28;20286;-78
2021/03/12 14:31:55;;;;;;;64.57;28.97;;;;;;;8.49;76.47;94735.19;10489899;28;20043;-76
2021/03/12 14:36:57;;;;;;;62.30;26.67;;;;;;;8.39;75.08;94733.22;10467727;28;20028;-76
2021/03/12 14:41:57;;;;;;;57.88;28.05;;;;;;;8.31;73.89;94731.03;10474997;28;20102;-74
2021/03/12 14:46:58;;;;;;;62.57;31.07;;;;;;;8.34;81.57;94719.81;10461946;28;20033;-73
2021/03/12 14:51:58;;;;;;;61.75;31.50;;;;;;;8.13;83.82;94718.88;10446980;28;20075;-76
2021/03/12 14:56:58;;;;;;;59.90;30.47;;;;;;;8.05;83.42;94722.03;10456824;28;20033;-75
2021/03/12 15:01:59;;;;;;;77.17;31.20;;;;;;;7.84;87.22;94721.06;10486290;28;20089;-74
2021/03/12 15:06:59;;;;;;;78.93;31.45;;;;;;;7.72;89.32;94713.25;10489207;28;20822;-73
2021/03/12 15:12:00;;;;;;;64.78;32.15;;;;;;;7.53;89.10;94707.44;10488606;28;20027;-74
2021/03/12 15:17:00;;;;;;;61.90;31.03;;;;;;;7.58;90.90;94702.16;10449787;28;20051;-76
2021/03/12 15:22:00;;;;;;;63.50;32.40;;;;;;;7.65;91.70;94691.25;10446542;28;20033;-75
2021/03/12 15:27:01;;;;;;;67.43;29.43;;;;;;;7.68;92.76;94699.56;10446531;28;20044;-74
2021/03/12 15:32:01;;;;;;;57.90;30.13;;;;;;;7.72;94.39;94691.84;10471885;28;20290;-76
2021/03/12 15:37:03;;;;;;;62.78;28.13;;;;;;;7.85;95.93;94696.72;10487662;28;20036;-76
2021/03/12 15:42:03;;;;;;;56.60;27.55;;;;;;;7.74;97.37;94697.72;10485915;28;20028;-76
2021/03/12 15:47:03;;;;;;;58.35;29.00;;;;;;;7.47;100.00;94695.09;10487080;28;20032;-75
2021/03/12 15:52:05;;;;;;;53.92;27.83;;;;;;;7.34;100.00;94691.00;10486052;28;20048;-73
2021/03/12 15:57:06;;;;;;;57.35;28.10;;;;;;;7.45;100.00;94683.84;10485963;28;20028;-74
2021/03/12 16:02:06;;;;;;;52.17;26.42;;;;;;;7.54;100.00;94679.66;10484988;28;20020;-75
2021/03/12 16:07:06;;;;;;;65.03;26.48;;;;;;;7.57;100.00;94684.50;10487111;28;20032;-75
2021/03/12 16:12:08;;;;;;;50.33;26.53;;;;;;;7.39;100.00;94696.38;10485930;28;20063;-75
2021/03/12 16:17:08;;;;;;;60.92;27.25;;;;;;;7.33;100.00;94690.16;10486625;28;20286;-74
2021/03/12 16:22:08;;;;;;;61.53;28.03;;;;;;;7.28;100.00;94686.66;10485327;28;20036;-73
2021/03/12 16:27:09;;;;;;;66.53;29.03;;;;;;;7.21;100.00;94691.41;10485972;28;20895;-77
2021/03/12 16:32:15;;;;;;;57.95;29.52;;;;;;;6.95;100.00;94699.97;10478735;28;20494;-75
2021/03/12 16:37:17;;;;;;;54.17;26.75;;;;;;;6.90;100.00;94691.88;10467629;28;20047;-75
2021/03/12 16:42:18;;;;;;;58.90;30.00;;;;;;;6.59;100.00;94694.22;10443766;28;20036;-75
2021/03/12 16:47:18;;;;;;;66.97;32.10;;;;;;;6.52;100.00;94685.59;10476517;28;20032;-77
2021/03/12 16:52:19;;;;;;;70.82;32.85;;;;;;;6.35;100.00;94690.16;10484489;28;20305;-76
2021/03/12 16:57:19;;;;;;;77.20;35.90;;;;;;;5.90;100.00;94700.75;10487079;28;20024;-77
2021/03/12 17:02:20;;;;;;;78.20;34.58;;;;;;;5.67;100.00;94722.25;10487714;28;20034;-85
2021/03/12 17:07:20;;;;;;;78.28;35.08;;;;;;;5.52;100.00;94715.59;10444764;28;20032;-76
2021/03/12 17:12:21;;;;;;;81.10;35.35;;;;;;;5.38;100.00;94731.09;10446243;28;20036;-76
2021/03/12 17:17:21;;;;;;;82.53;35.28;;;;;;;5.40;100.00;94734.34;10472789;28;20040;-77
2021/03/12 17:22:22;;;;;;;74.78;32.72;;;;;;;5.46;100.00;94727.25;10493394;28;20483;-77
2021/03/12 17:27:22;;;;;;;69.05;33.53;;;;;;;5.35;100.00;94733.47;10458128;28;20033;-77
2021/03/12 17:32:24;;;;;;;62.73;29.90;;;;;;;5.17;100.00;94743.25;10479893;28;20135;-77
2021/03/12 17:37:24;;;;;;;65.75;30.92;;;;;;;5.17;100.00;94745.94;10492203;28;20283;-76
2021/03/12 17:42:24;;;;;;;75.33;35.37;;;;;;;5.10;100.00;94754.06;10492005;28;20487;-76
2021/03/12 17:47:25;;;;;;;57.58;30.80;;;;;;;5.14;100.00;94736.56;10486435;28;20267;-76
2021/03/12 17:52:25;;;;;;;71.63;35.47;;;;;;;5.14;100.00;94746.41;10473573;28;20064;-77
2021/03/12 17:57:26;;;;;;;70.88;28.63;;;;;;;5.01;100.00;94749.34;10483779;28;20106;-77
2021/03/12 18:02:26;;;;;;;71.85;31.92;;;;;;;5.02;100.00;94748.31;10482737;28;20032;-77
2021/03/12 18:07:27;;;;;;;65.73;34.13;;;;;;;5.03;100.00;94747.28;10486927;28;20029;-77
2021/03/12 18:12:28;;;;;;;62.42;28.55;;;;;;;4.77;100.00;94762.75;10487733;28;20039;-78
2021/03/12 18:17:28;;;;;;;58.97;29.43;;;;;;;4.70;100.00;94762.06;10486357;28;20035;-78
2021/03/12 18:22:29;;;;;;;73.23;31.20;;;;;;;4.59;100.00;94753.88;10484601;28;20274;-78
2021/03/12 18:27:30;;;;;;;71.97;34.60;;;;;;;4.33;100.00;94762.38;10491138;28;20271;-77
2021/03/12 18:32:30;;;;;;;67.97;33.95;;;;;;;4.19;100.00;94759.94;10489536;28;20024;-77
2021/03/12 18:37:31;;;;;;;71.30;33.78;;;;;;;4.24;100.00;94765.38;10488857;28;20336;-77
2021/03/12 18:42:31;;;;;;;73.20;32.63;;;;;;;4.40;100.00;94773.69;10491819;28;20020;-77
2021/03/12 18:47:32;;;;;;;72.60;31.58;;;;;;;4.34;100.00;94780.75;10479571;28;20025;-77
2021/03/12 18:52:33;;;;;;;63.88;29.95;;;;;;;4.23;100.00;94782.38;10472753;28;20045;-77
2021/03/12 18:57:33;;;;;;;63.08;31.02;;;;;;;4.16;100.00;94795.00;10460100;28;20170;-77
2021/03/12 19:02:34;;;;;;;73.40;30.52;;;;;;;4.13;100.00;94794.63;10459676;28;20446;-78
2021/03/12 19:07:34;;;;;;;64.90;28.50;;;;;;;4.17;100.00;94799.28;10450968;28;20025;-77
2021/03/12 19:12:37;;;;;;;70.67;31.07;;;;;;;4.25;100.00;94785.59;10490213;28;20282;-80
2021/03/12 19:17:37;;;;;;;74.40;32.10;;;;;;;4.18;100.00;94787.56;10469997;28;20310;-76
2021/03/12 19:22:38;;;;;;;58.95;27.17;;;;;;;4.20;100.00;94768.72;10461495;28;20175;-75
2021/03/12 19:27:40;;;;;;;65.97;32.73;;;;;;;4.09;100.00;94781.00;10488944;28;20494;-76
2021/03/12 19:32:41;;;;;;;69.57;33.47;;;;;;;3.97;100.00;94783.66;10488784;28;20287;-75
2021/03/12 19:37:41;;;;;;;79.28;34.90;;;;;;;3.86;100.00;94785.25;10487107;28;20740;-75
2021/03/12 19:42:42;;;;;;;72.20;32.80;;;;;;;3.74;100.00;94785.25;10488548;28;20054;-76
2021/03/12 19:47:43;;;;;;;83.40;30.20;;;;;;;3.76;100.00;94769.88;10487592;28;20028;-75
2021/03/12 19:52:44;;;;;;;58.15;28.75;;;;;;;3.68;100.00;94761.41;10487190;28;20049;-75
2021/03/12 19:57:44;;;;;;;49.03;24.87;;;;;;;3.72;100.00;94773.22;10487194;28;20509;-75
2021/03/12 20:02:45;;;;;;;53.00;26.90;;;;;;;3.78;100.00;94761.66;10487121;28;20815;-75
2021/03/12 20:07:45;;;;;;;58.20;25.45;;;;;;;3.72;100.00;94763.38;10487399;28;20509;-75
2021/03/12 20:12:46;;;;;;;53.53;24.23;;;;;;;3.67;100.00;94768.59;10485816;28;20028;-75
2021/03/12 20:17:46;;;;;;;59.13;25.90;;;;;;;3.62;100.00;94754.38;10486829;28;20024;-75
2021/03/12 20:22:47;;;;;;;65.00;26.20;;;;;;;3.71;100.00;94745.00;10486247;28;20483;-75
2021/03/12 20:27:48;;;;;;;57.45;25.75;;;;;;;3.78;100.00;94755.53;10448903;28;20275;-74
2021/03/12 20:32:49;;;;;;;58.38;27.08;;;;;;;3.65;100.00;94786.59;10445666;28;20041;-74
2021/03/12 20:37:49;;;;;;;55.38;25.75;;;;;;;3.52;100.00;94781.50;10445084;28;20484;-74
2021/03/12 20:42:50;;;;;;;48.45;24.20;;;;;;;3.44;100.00;94768.56;10449510;28;20020;-75
2021/03/12 20:47:50;;;;;;;61.67;26.02;;;;;;;3.31;100.00;94769.53;10486287;28;20024;-75
2021/03/12 20:52:51;;;;;;;63.45;29.30;;;;;;;3.21;100.00;94786.00;10486055;28;20049;-75
2021/03/12 20:57:51;;;;;;;54.72;28.92;;;;;;;3.18;100.00;94786.47;10486580;28;20486;-75
2021/03/12 21:02:52;;;;;;;69.25;34.15;;;;;;;3.16;100.00;94768.09;10454199;28;20113;-75
2021/03/12 21:07:53;;;;;;;72.40;37.80;;;;;;;3.06;100.00;94770.50;10443940;28;20029;-72
2021/03/12 21:12:53;;;;;;;66.70;34.20;;;;;;;3.08;100.00;94784.34;10483095;28;20411;-72
2021/03/12 21:17:55;;;;;;;75.57;33.20;;;;;;;3.07;100.00;94783.56;10474990;28;20040;-72
2021/03/12 21:22:55;;;;;;;77.75;33.20;;;;;;;2.91;100.00;94763.72;10458446;28;20646;-72
2021/03/12 21:27:56;;;;;;;77.13;34.20;;;;;;;2.76;100.00;94760.66;10459360;28;20029;-72
2021/03/12 21:32:57;;;;;;;78.93;35.20;;;;;;;2.81;100.00;94760.81;10455369;28;20370;-72
2021/03/12 21:37:57;;;;;;;61.70;31.13;;;;;;;2.73;100.00;94751.34;10484540;28;20770;-72
2021/03/12 21:42:58;;;;;;;52.40;27.65;;;;;;;2.54;100.00;94758.50;10484836;28;20483;-72
2021/03/12 21:47:59;;;;;;;46.95;25.80;;;;;;;2.36;100.00;94748.69;10485854;28;20032;-71
2021/03/12 21:53:00;;;;;;;42.42;23.50;;;;;;;2.16;100.00;94740.97;10485057;28;20057;-72
2021/03/12 21:58:00;;;;;;;43.40;23.52;;;;;;;2.22;100.00;94729.47;10458698;28;20033;-71
2021/03/12 22:03:01;;;;;;;54.70;26.17;;;;;;;2.07;100.00;94728.22;10451020;28;20021;-72
2021/03/12 22:08:07;;;;;;;54.75;26.08;;;;;;;2.27;100.00;94725.34;10449525;28;20032;-71
2021/03/12 22:13:08;;;;;;;56.13;28.65;;;;;;;2.42;100.00;94727.63;10470629;28;20031;-76
2021/03/12 22:18:09;;;;;;;56.47;24.77;;;;;;;2.46;100.00;94713.69;10491792;28;20044;-77
2021/03/12 22:23:09;;;;;;;47.35;24.02;;;;;;;2.52;100.00;94699.53;10490057;28;20467;-78
2021/03/12 22:28:09;;;;;;;48.33;22.53;;;;;;;2.81;100.00;94689.16;10489952;28;20029;-78
2021/03/12 22:33:10;;;;;;;37.57;20.13;;;;;;;2.88;100.00;94697.03;10488224;28;20295;-77
2021/03/12 22:38:10;;;;;;;28.40;17.17;;;;;;;2.87;100.00;94711.31;10489460;28;20823;-78
2021/03/12 22:43:11;;;;;;;32.80;16.43;;;;;;;3.00;100.00;94705.84;10489748;28;20278;-77
2021/03/12 22:48:11;;;;;;;30.80;16.13;;;;;;;3.08;100.00;94704.69;10489862;28;20024;-76
2021/03/12 22:53:11;;;;;;;32.65;17.20;;;;;;;3.26;100.00;94701.16;10488847;28;20314;-77
2021/03/12 22:58:12;;;;;;;31.03;17.27;;;;;;;3.30;100.00;94694.34;10488849;28;20024;-77